Zelhem, Netherlands
Current Conditions -  °F | °C
As of 12:02 PM on Wednesday 22 Oct 2014 (Local Time) from EHDL Reporting Station
Broken Clouds Broken Clouds  
Wind Chill: 54°   Ceiling: 4200
Heat Index: 54°   Visibility: 6mi
Dew Point: 45°   Wind: 16mph
Humidity: 72%   Direction: 310°NW
Pressure: 30"   Gusts: NA
Location:  52.01°N, 6.35°E
Report Text: EHDL 221002Z AUTO 31014KT 9999 FEW023/// SCT031/// BKN042/// 12/07 Q1016 BLU
Loading
Personal Weather Stations






























Interactive Weather Map
Tropical Storm Tracking
New forecast layout! Learn more

10-Day Weather Forecast

Advertisements
Track Severe Weather on mobile